Time;durP1;ratioP1;P1;durP2;ratioP2;P2;SDS_P1;SDS_P2;PMS_P1;PMS_P2;Temp;Humidity;BMP_temperature;BMP_pressure;BME280_temperature;BME280_humidity;BME280_pressure;Samples;Min_cycle;Max_cycle;Signal;HPM_P1;HPM_P2
2021/01/05 00:01:56;;;;;;;;;;;;;;;-5.28;40.48;102951.25;4986654;28;19914;-82
2021/01/05 00:04:33;;;;;;;;;;;;;;;-5.28;41.13;102929.66;4988972;28;19953;-82
2021/01/05 00:07:02;;;;;;;;;;;;;;;-5.16;41.63;102923.53;4988528;28;19914;-83
2021/01/05 00:09:33;;;;;;;;;;;;;;;-5.37;42.64;102925.66;4985899;28;19938;-82
2021/01/05 00:12:04;;;;;;;;;;;;;;;-5.32;41.68;102928.09;4986380;28;19914;-82
2021/01/05 00:14:40;;;;;;;;;;;;;;;-5.44;43.05;102926.97;5024048;28;19940;-82
2021/01/05 00:17:06;;;;;;;;;;;;;;;-5.38;40.95;102935.63;4992362;28;19922;-83
2021/01/05 00:19:34;;;;;;;;;;;;;;;-5.70;39.26;102968.03;4992614;28;19925;-82
2021/01/05 00:22:04;;;;;;;;;;;;;;;-5.69;35.16;102936.53;4993301;28;19914;-82
2021/01/05 00:24:30;;;;;;;;;;;;;;;-5.33;36.45;102969.56;5009230;28;19913;-82
2021/01/05 00:26:58;;;;;;;;;;;;;;;-5.47;36.64;102955.03;5025951;28;19921;-82
2021/01/05 00:29:31;;;;;;;;;;;;;;;-5.38;34.14;102973.41;4993642;28;19898;-82
2021/01/05 00:32:16;;;;;;;;;;;;;;;-5.42;34.61;102985.34;4993145;28;19925;-82
2021/01/05 00:34:53;;;;;;;;;;;;;;;-5.54;35.33;102976.13;4992877;28;19914;-82
2021/01/05 00:37:23;;;;;;;;;;;;;;;-5.52;34.51;102965.25;5008253;28;19914;-82
2021/01/05 00:39:52;;;;;;;;;;;;;;;-5.63;35.18;103004.50;4992048;28;19946;-83
2021/01/05 00:42:20;;;;;;;;;;;;;;;-5.57;34.78;102980.84;4989023;28;20279;-83
2021/01/05 00:44:50;;;;;;;;;;;;;;;-5.55;34.77;102981.59;5020444;28;20291;-83
2021/01/05 00:47:18;;;;;;;;;;;;;;;-5.47;34.76;102973.94;5006512;28;19945;-83
2021/01/05 00:49:44;;;;;;;;;;;;;;;-5.28;34.74;102972.88;4990447;28;19929;-83
2021/01/05 00:52:10;;;;;;;;;;;;;;;-5.37;34.77;102969.75;4991323;28;19960;-83
2021/01/05 00:54:37;;;;;;;;;;;;;;;-5.41;34.89;102978.97;4993109;28;19914;-82
2021/01/05 00:57:07;;;;;;;;;;;;;;;-5.19;34.58;102950.72;4988690;28;20382;-82
2021/01/05 00:59:34;;;;;;;;;;;;;;;-5.11;34.10;102974.59;5021152;28;19918;-82
2021/01/05 01:02:03;;;;;;;;;;;;;;;-5.57;33.75;102978.13;4987627;28;19961;-82
2021/01/05 01:04:30;;;;;;;;;;;;;;;-5.68;33.27;102993.13;5019064;28;19921;-82
2021/01/05 01:06:59;;;;;;;;;;;;;;;-5.71;33.03;102973.53;4987239;28;19914;-83
2021/01/05 01:09:27;;;;;;;;;;;;;;;-5.39;33.04;102960.88;4985947;28;19933;-82
2021/01/05 01:12:14;;;;;;;;;;;;;;;-5.29;32.39;102949.53;4985518;28;19925;-82
2021/01/05 01:14:41;;;;;;;;;;;;;;;-5.51;31.25;102953.47;5005096;28;19941;-81
2021/01/05 01:17:10;;;;;;;;;;;;;;;-5.52;31.16;102959.84;5016998;28;19961;-82
2021/01/05 01:19:36;;;;;;;;;;;;;;;-5.64;30.88;102989.28;4986032;28;19914;-82
2021/01/05 01:22:03;;;;;;;;;;;;;;;-5.66;30.97;102982.22;4985150;28;19925;-82
2021/01/05 01:24:31;;;;;;;;;;;;;;;-5.47;30.89;102994.69;4985360;28;19918;-81
2021/01/05 01:27:04;;;;;;;;;;;;;;;-5.25;31.14;102999.69;4987061;28;19937;-83
2021/01/05 01:29:31;;;;;;;;;;;;;;;-5.06;31.02;103004.03;4985647;28;19941;-81
2021/01/05 01:32:03;;;;;;;;;;;;;;;-5.08;30.97;103012.22;4987077;28;19925;-81
2021/01/05 01:34:29;;;;;;;;;;;;;;;-4.91;31.19;103015.72;5019086;28;19918;-82
2021/01/05 01:37:01;;;;;;;;;;;;;;;-4.93;31.16;103026.66;4986293;28;19949;-83
2021/01/05 01:39:32;;;;;;;;;;;;;;;-4.89;31.47;103052.50;5020148;28;19938;-82
2021/01/05 01:42:00;;;;;;;;;;;;;;;-5.27;32.17;103034.03;5020925;28;19917;-82
2021/01/05 01:44:32;;;;;;;;;;;;;;;-5.15;32.74;103041.41;5020695;28;19914;-82
2021/01/05 01:47:06;;;;;;;;;;;;;;;-5.07;32.49;103032.00;5021254;28;19991;-82
2021/01/05 01:49:32;;;;;;;;;;;;;;;-5.14;32.51;103045.88;4988268;28;19941;-82
2021/01/05 01:51:58;;;;;;;;;;;;;;;-5.09;32.60;103035.66;4988155;28;19922;-82
2021/01/05 01:54:39;;;;;;;;;;;;;;;-4.64;32.48;103032.13;4986772;28;19933;-82
2021/01/05 01:57:09;;;;;;;;;;;;;;;-5.34;31.37;103021.84;5017734;28;19937;-82
2021/01/05 01:59:38;;;;;;;;;;;;;;;-4.92;30.42;103005.88;5017781;28;19914;-82
2021/01/05 02:02:06;;;;;;;;;;;;;;;-4.85;30.39;103002.75;5018448;28;19977;-82
2021/01/05 02:04:51;;;;;;;;;;;;;;;-4.76;30.52;102995.03;4989057;28;20016;-82
2021/01/05 02:07:35;;;;;;;;;;;;;;;-4.54;30.74;102984.66;5019266;28;19918;-82
2021/01/05 02:10:28;;;;;;;;;;;;;;;-4.40;30.72;102980.22;4988578;28;19914;-82
2021/01/05 02:13:08;;;;;;;;;;;;;;;-4.89;31.55;102984.94;5016889;28;20334;-82
2021/01/05 02:15:37;;;;;;;;;;;;;;;-5.00;31.96;102976.63;4985687;28;19941;-82
2021/01/05 02:18:18;;;;;;;;;;;;;;;-4.96;32.10;102968.25;4988846;28;19914;-81
2021/01/05 02:20:49;;;;;;;;;;;;;;;-4.55;31.68;102960.41;4988610;28;19914;-81
2021/01/05 02:23:43;;;;;;;;;;;;;;;-4.20;31.65;102965.44;4989906;28;19913;-84
2021/01/05 02:26:19;;;;;;;;;;;;;;;-4.92;33.60;102973.47;4986368;28;19914;-82
2021/01/05 02:28:55;;;;;;;;;;;;;;;-5.29;33.42;102965.72;5004939;28;19921;-82
2021/01/05 02:31:33;;;;;;;;;;;;;;;-5.21;35.24;102958.03;4985561;28;19918;-81
2021/01/05 02:34:19;;;;;;;;;;;;;;;-4.97;34.85;102976.44;4984572;28;19953;-82
2021/01/05 02:36:52;;;;;;;;;;;;;;;-5.46;35.60;102964.91;5001251;28;19925;-82
2021/01/05 02:39:56;;;;;;;;;;;;;;;-5.49;35.88;102951.56;4985101;28;19914;-82
2021/01/05 02:42:41;;;;;;;;;;;;;;;-5.25;34.37;102946.56;4944763;29;19915;-81
2021/01/05 02:45:33;;;;;;;;;;;;;;;-4.89;34.37;102940.88;4947081;29;19949;-82
2021/01/05 02:48:18;;;;;;;;;;;;;;;-5.07;32.91;102940.16;4962566;28;19921;-81
2021/01/05 02:50:55;;;;;;;;;;;;;;;-5.17;32.21;102929.03;4989120;28;19941;-83
2021/01/05 02:53:39;;;;;;;;;;;;;;;-5.26;31.04;102922.31;4990448;28;19926;-83
2021/01/05 02:56:22;;;;;;;;;;;;;;;-5.73;32.33;102892.66;5005138;28;19914;-82
2021/01/05 02:58:48;;;;;;;;;;;;;;;-5.15;31.92;102903.66;5020975;28;19918;-82
2021/01/05 03:01:21;;;;;;;;;;;;;;;-5.37;32.50;102929.25;5020649;28;19918;-83
2021/01/05 03:03:50;;;;;;;;;;;;;;;-5.36;32.72;102925.59;4991024;28;19949;-82
2021/01/05 03:06:34;;;;;;;;;;;;;;;-5.13;32.92;102928.75;4990681;28;19922;-82
2021/01/05 03:09:19;;;;;;;;;;;;;;;-5.13;33.12;102923.34;4992960;28;19914;-82
2021/01/05 03:12:02;;;;;;;;;;;;;;;-5.09;33.77;102914.09;5006838;28;19921;-82
2021/01/05 03:14:37;;;;;;;;;;;;;;;-5.36;34.00;102913.91;5004287;28;20270;-82
2021/01/05 03:17:18;;;;;;;;;;;;;;;-5.06;33.03;102871.63;4987547;28;19918;-83
2021/01/05 03:19:45;;;;;;;;;;;;;;;-5.18;34.41;102865.16;4985769;28;20396;-82
2021/01/05 03:22:20;;;;;;;;;;;;;;;-5.00;34.33;102866.72;4988682;28;19938;-83
2021/01/05 03:24:48;;;;;;;;;;;;;;;-5.12;33.82;102881.00;4986573;28;19914;-82
2021/01/05 03:27:16;;;;;;;;;;;;;;;-5.05;34.81;102881.47;4986250;28;20053;-81
2021/01/05 03:29:42;;;;;;;;;;;;;;;-4.81;35.56;102871.00;5018974;28;19914;-82
2021/01/05 03:32:11;;;;;;;;;;;;;;;-4.50;35.34;102854.66;5001528;28;19918;-83
2021/01/05 03:34:37;;;;;;;;;;;;;;;-4.87;35.81;102874.06;5018877;28;19914;-83
2021/01/05 03:37:10;;;;;;;;;;;;;;;-5.17;37.52;102842.59;4988575;28;19937;-83
2021/01/05 03:39:38;;;;;;;;;;;;;;;-5.01;37.97;102843.38;4989870;28;19924;-83
2021/01/05 03:42:17;;;;;;;;;;;;;;;-4.68;37.61;102853.00;5003165;28;19961;-82
2021/01/05 03:44:47;;;;;;;;;;;;;;;-4.84;37.45;102850.44;4987350;28;19964;-82
2021/01/05 03:47:16;;;;;;;;;;;;;;;-4.94;36.90;102862.75;4987714;28;19925;-82
2021/01/05 03:49:43;;;;;;;;;;;;;;;-5.22;37.73;102840.16;5020776;28;19921;-82
2021/01/05 03:52:10;;;;;;;;;;;;;;;-4.95;37.90;102840.28;4989880;28;19910;-83
2021/01/05 03:54:43;;;;;;;;;;;;;;;-4.87;36.89;102826.28;4992187;28;19922;-83
2021/01/05 03:57:10;;;;;;;;;;;;;;;-5.18;37.14;102811.13;4993047;28;19941;-82
2021/01/05 03:59:38;;;;;;;;;;;;;;;-5.13;36.75;102795.50;4991581;28;19914;-82
2021/01/05 04:02:06;;;;;;;;;;;;;;;-5.25;36.89;102819.63;4992175;28;19921;-83
2021/01/05 04:04:34;;;;;;;;;;;;;;;-5.46;37.23;102818.22;4991836;28;19921;-81
2021/01/05 04:07:04;;;;;;;;;;;;;;;-5.04;36.39;102813.84;5024357;28;19914;-84
2021/01/05 04:09:30;;;;;;;;;;;;;;;-4.78;36.48;102807.75;4990902;28;19918;-83
2021/01/05 04:11:59;;;;;;;;;;;;;;;-4.91;36.98;102797.72;5019737;28;19921;-85
2021/01/05 04:14:30;;;;;;;;;;;;;;;-4.88;37.91;102784.00;4990511;28;19918;-82
2021/01/05 04:16:56;;;;;;;;;;;;;;;-4.76;38.06;102770.69;5022522;28;19921;-83
2021/01/05 04:19:23;;;;;;;;;;;;;;;-5.12;39.13;102779.19;4990239;28;19914;-82
2021/01/05 04:21:50;;;;;;;;;;;;;;;-5.09;39.24;102784.44;4988798;28;20401;-83
2021/01/05 04:24:17;;;;;;;;;;;;;;;-5.09;39.58;102772.75;5000471;28;20373;-82
2021/01/05 04:26:52;;;;;;;;;;;;;;;-5.01;39.64;102759.63;4985811;28;19913;-82
2021/01/05 04:29:18;;;;;;;;;;;;;;;-5.22;40.80;102757.28;5020719;28;19918;-83
2021/01/05 04:31:47;;;;;;;;;;;;;;;-5.16;41.48;102745.25;4988113;28;19925;-82
2021/01/05 04:34:17;;;;;;;;;;;;;;;-5.15;41.98;102747.00;4987804;28;19914;-83
2021/01/05 04:36:43;;;;;;;;;;;;;;;-5.19;42.39;102758.09;4989514;28;19914;-83
2021/01/05 04:39:10;;;;;;;;;;;;;;;-5.38;43.19;102738.50;5023204;28;19937;-83
2021/01/05 04:41:59;;;;;;;;;;;;;;;-5.46;42.08;102748.91;5022453;28;20386;-82
2021/01/05 04:44:26;;;;;;;;;;;;;;;-5.23;42.01;102749.31;4970740;28;19949;-83
2021/01/05 04:47:02;;;;;;;;;;;;;;;-4.63;41.16;102760.84;4991536;28;19918;-83
2021/01/05 04:49:31;;;;;;;;;;;;;;;-5.27;40.14;102758.56;5020045;28;19996;-82
2021/01/05 04:52:00;;;;;;;;;;;;;;;-5.00;38.99;102758.66;5021122;28;19924;-82
2021/01/05 04:54:36;;;;;;;;;;;;;;;-4.95;38.75;102742.13;4990464;28;20042;-83
2021/01/05 04:57:26;;;;;;;;;;;;;;;-4.52;38.07;102738.47;4991412;28;19960;-82
2021/01/05 05:00:14;;;;;;;;;;;;;;;-4.50;37.73;102730.28;4989753;28;19918;-83
2021/01/05 05:02:46;;;;;;;;;;;;;;;-4.80;38.31;102729.50;5007609;28;19914;-82
2021/01/05 05:05:23;;;;;;;;;;;;;;;-5.03;39.28;102728.25;4994299;28;19942;-83
2021/01/05 05:07:52;;;;;;;;;;;;;;;-4.69;38.63;102728.78;4991383;28;19921;-81
2021/01/05 05:10:44;;;;;;;;;;;;;;;-4.53;38.27;102718.69;4990673;28;19914;-81
2021/01/05 05:13:19;;;;;;;;;;;;;;;-4.46;37.44;102718.28;4991422;28;19985;-83
2021/01/05 05:15:54;;;;;;;;;;;;;;;-5.03;37.83;102739.06;5022377;28;19961;-82
2021/01/05 05:18:44;;;;;;;;;;;;;;;-5.10;38.13;102739.44;5022154;28;19942;-83
2021/01/05 05:21:17;;;;;;;;;;;;;;;-4.53;37.18;102748.44;4991135;28;20397;-82
2021/01/05 05:24:21;;;;;;;;;;;;;;;-4.59;36.71;102748.84;4991089;28;19914;-82
2021/01/05 05:26:54;;;;;;;;;;;;;;;-5.11;37.01;102736.88;4949067;29;19925;-82
2021/01/05 05:29:38;;;;;;;;;;;;;;;-4.94;37.43;102738.47;4980408;28;19918;-82
2021/01/05 05:32:14;;;;;;;;;;;;;;;-5.28;37.60;102751.41;5019654;28;19957;-82
2021/01/05 05:34:56;;;;;;;;;;;;;;;-5.30;38.23;102737.16;5004132;28;20425;-82
2021/01/05 05:37:44;;;;;;;;;;;;;;;-5.13;38.31;102734.25;4988488;28;19914;-82
2021/01/05 05:40:10;;;;;;;;;;;;;;;-4.91;37.71;102722.06;5020787;28;19918;-82
2021/01/05 05:42:55;;;;;;;;;;;;;;;-5.20;38.00;102730.19;5021146;28;22035;-82
2021/01/05 05:45:28;;;;;;;;;;;;;;;-4.99;36.91;102730.66;5003373;28;19957;-82
2021/01/05 05:48:04;;;;;;;;;;;;;;;-5.07;36.54;102710.53;4990546;28;19921;-82
2021/01/05 05:50:30;;;;;;;;;;;;;;;-5.18;36.67;102724.72;5022950;28;19921;-83
2021/01/05 05:52:59;;;;;;;;;;;;;;;-5.19;37.36;102691.41;4991766;28;19918;-82
2021/01/05 05:55:43;;;;;;;;;;;;;;;-5.52;38.67;102706.09;4991875;28;19969;-83
2021/01/05 05:58:11;;;;;;;;;;;;;;;-5.45;38.39;102706.56;5006610;28;19941;-83
2021/01/05 06:00:44;;;;;;;;;;;;;;;-5.21;38.15;102712.25;4989967;28;19921;-82
2021/01/05 06:03:11;;;;;;;;;;;;;;;-5.47;37.89;102711.19;4988315;28;19914;-83
2021/01/05 06:05:39;;;;;;;;;;;;;;;-5.48;37.98;102710.31;5008388;28;19920;-83
2021/01/05 06:08:07;;;;;;;;;;;;;;;-5.43;38.28;102700.13;5007971;28;19920;-82
2021/01/05 06:10:34;;;;;;;;;;;;;;;-5.18;36.34;102687.75;4991205;28;20008;-82
2021/01/05 06:13:01;;;;;;;;;;;;;;;-4.93;36.12;102686.19;4991350;28;19913;-82
2021/01/05 06:15:27;;;;;;;;;;;;;;;-4.83;36.10;102681.03;5005100;28;19937;-83
2021/01/05 06:17:54;;;;;;;;;;;;;;;-4.79;35.63;102676.28;4986564;28;20318;-83
2021/01/05 06:20:20;;;;;;;;;;;;;;;-5.13;36.57;102677.53;4986827;28;19917;-83
2021/01/05 06:22:47;;;;;;;;;;;;;;;-5.02;36.49;102668.72;4986916;28;19941;-82
2021/01/05 06:25:13;;;;;;;;;;;;;;;-4.91;36.51;102677.97;5003629;28;20018;-83
2021/01/05 06:27:40;;;;;;;;;;;;;;;-4.95;36.36;102690.78;5003700;28;19913;-81
2021/01/05 06:30:08;;;;;;;;;;;;;;;-5.04;36.96;102677.91;4987194;28;20297;-81
2021/01/05 06:32:37;;;;;;;;;;;;;;;-5.09;37.35;102681.78;4987319;28;19949;-82
2021/01/05 06:35:05;;;;;;;;;;;;;;;-4.82;37.92;102678.22;5003799;28;19918;-83
2021/01/05 06:37:32;;;;;;;;;;;;;;;-4.92;37.48;102677.09;4986473;28;19914;-82
2021/01/05 06:39:59;;;;;;;;;;;;;;;-5.04;37.74;102686.00;5000138;28;19926;-82
2021/01/05 06:42:28;;;;;;;;;;;;;;;-5.02;38.52;102675.94;4980376;28;19914;-82
2021/01/05 06:44:55;;;;;;;;;;;;;;;-5.20;39.13;102695.09;5013456;28;19921;-83
2021/01/05 06:47:21;;;;;;;;;;;;;;;-5.19;39.23;102675.22;4980956;28;19914;-82
2021/01/05 06:49:47;;;;;;;;;;;;;;;-4.99;39.32;102681.19;4979927;28;19961;-83
2021/01/05 06:52:13;;;;;;;;;;;;;;;-4.73;38.82;102676.78;4979142;28;19921;-83
2021/01/05 06:54:40;;;;;;;;;;;;;;;-4.57;38.45;102663.06;4979720;28;20330;-81
2021/01/05 06:57:08;;;;;;;;;;;;;;;-4.55;38.63;102650.34;5011641;28;19918;-81
2021/01/05 06:59:36;;;;;;;;;;;;;;;-4.80;39.66;102670.03;4983698;28;20001;-81
2021/01/05 07:02:07;;;;;;;;;;;;;;;-5.02;40.19;102667.84;4977028;28;19921;-82
2021/01/05 07:04:34;;;;;;;;;;;;;;;-5.12;40.66;102648.69;4993096;28;19925;-81
2021/01/05 07:07:01;;;;;;;;;;;;;;;-4.81;40.46;102662.91;4993304;28;19929;-83
2021/01/05 07:09:28;;;;;;;;;;;;;;;-4.83;40.90;102657.59;5009266;28;19918;-82
2021/01/05 07:11:54;;;;;;;;;;;;;;;-5.09;40.83;102653.88;4976582;28;19924;-82
2021/01/05 07:14:26;;;;;;;;;;;;;;;-5.01;41.38;102656.94;4977902;28;19921;-83
2021/01/05 07:16:54;;;;;;;;;;;;;;;-4.97;40.30;102652.22;5012750;28;19914;-82
2021/01/05 07:19:20;;;;;;;;;;;;;;;-4.89;40.96;102647.16;4992687;28;19918;-82
2021/01/05 07:21:47;;;;;;;;;;;;;;;-5.01;41.05;102640.75;4977349;28;19914;-82
2021/01/05 07:24:13;;;;;;;;;;;;;;;-5.25;41.49;102637.78;4979349;28;20429;-82
2021/01/05 07:26:43;;;;;;;;;;;;;;;-5.23;41.94;102641.28;4978006;28;20367;-82
2021/01/05 07:29:12;;;;;;;;;;;;;;;-4.97;41.92;102634.19;4977100;28;20013;-81
2021/01/05 07:31:40;;;;;;;;;;;;;;;-5.04;42.35;102640.06;4991103;28;20016;-82
2021/01/05 07:34:07;;;;;;;;;;;;;;;-5.22;42.58;102622.25;4991690;28;19944;-82
2021/01/05 07:36:43;;;;;;;;;;;;;;;-5.14;42.14;102635.28;4978087;28;20397;-83
2021/01/05 07:39:13;;;;;;;;;;;;;;;-5.26;42.42;102626.13;4996683;28;19937;-83
2021/01/05 07:41:40;;;;;;;;;;;;;;;-5.20;42.23;102637.50;4994238;28;20001;-82
2021/01/05 07:44:06;;;;;;;;;;;;;;;-5.20;42.32;102626.69;5016918;28;19949;-83
2021/01/05 07:46:45;;;;;;;;;;;;;;;-5.17;42.75;102635.47;4996032;28;20031;-83
2021/01/05 07:49:12;;;;;;;;;;;;;;;-5.05;42.34;102631.09;5022100;28;19914;-84
2021/01/05 07:51:44;;;;;;;;;;;;;;;-5.23;42.82;102625.06;5023236;28;19921;-84
2021/01/05 07:54:14;;;;;;;;;;;;;;;-5.33;43.49;102618.53;5022037;28;19965;-82
2021/01/05 07:56:46;;;;;;;;;;;;;;;-5.34;43.86;102627.59;4992273;28;19914;-84
2021/01/05 07:59:12;;;;;;;;;;;;;;;-4.98;43.21;102623.47;5006876;28;19957;-83
2021/01/05 08:01:41;;;;;;;;;;;;;;;-4.87;42.50;102626.31;4989446;28;19920;-83
2021/01/05 08:04:12;;;;;;;;;;;;;;;-5.14;43.38;102635.28;4989029;28;19921;-83
2021/01/05 08:06:42;;;;;;;;;;;;;;;-5.06;42.71;102623.09;4989065;28;19918;-84
2021/01/05 08:09:08;;;;;;;;;;;;;;;-5.29;42.72;102622.78;5021133;28;19914;-85
2021/01/05 08:11:38;;;;;;;;;;;;;;;-5.19;42.09;102623.91;5023377;28;19921;-82
2021/01/05 08:14:08;;;;;;;;;;;;;;;-5.29;42.60;102628.16;4991359;28;19925;-82
2021/01/05 08:16:35;;;;;;;;;;;;;;;-5.21;42.68;102620.44;5023407;28;19914;-82
2021/01/05 08:19:05;;;;;;;;;;;;;;;-5.18;42.14;102617.53;4989990;28;19914;-83
2021/01/05 08:21:33;;;;;;;;;;;;;;;-5.21;40.62;102612.34;4988310;28;19918;-84
2021/01/05 08:23:59;;;;;;;;;;;;;;;-5.15;39.65;102616.47;4988030;28;19941;-83
2021/01/05 08:26:29;;;;;;;;;;;;;;;-5.39;40.79;102626.06;4989342;28;19914;-82
2021/01/05 08:28:58;;;;;;;;;;;;;;;-5.14;38.63;102629.00;5019292;28;19918;-82
2021/01/05 08:31:32;;;;;;;;;;;;;;;-5.41;38.37;102627.97;4983561;28;19968;-84
2021/01/05 08:34:02;;;;;;;;;;;;;;;-5.31;37.80;102649.88;5024309;28;19914;-82
2021/01/05 08:36:28;;;;;;;;;;;;;;;-5.47;37.71;102647.25;5025787;28;19973;-83
2021/01/05 08:38:55;;;;;;;;;;;;;;;-5.39;35.51;102652.19;4992668;28;20073;-82
2021/01/05 08:41:27;;;;;;;;;;;;;;;-5.51;34.59;102653.84;4993251;28;20398;-83
2021/01/05 08:43:54;;;;;;;;;;;;;;;-5.28;34.47;102651.50;4992647;28;19938;-83
2021/01/05 08:46:24;;;;;;;;;;;;;;;-5.27;33.28;102648.72;4993282;28;19914;-82
2021/01/05 08:48:56;;;;;;;;;;;;;;;-5.44;34.25;102649.78;4993899;28;19938;-82
2021/01/05 08:51:23;;;;;;;;;;;;;;;-5.51;34.24;102657.38;5025610;28;19914;-82
2021/01/05 08:53:53;;;;;;;;;;;;;;;-5.46;33.28;102658.94;5026517;28;19914;-83
2021/01/05 08:56:23;;;;;;;;;;;;;;;-5.61;34.22;102664.34;4994365;28;20378;-82
2021/01/05 08:58:51;;;;;;;;;;;;;;;-5.41;33.80;102660.38;4993611;28;19956;-84
2021/01/05 09:01:20;;;;;;;;;;;;;;;-5.33;33.63;102662.59;4992837;28;19921;-84
2021/01/05 09:03:46;;;;;;;;;;;;;;;-5.36;34.31;102673.59;5007506;28;20013;-85
2021/01/05 09:06:24;;;;;;;;;;;;;;;-5.58;34.62;102671.38;4991089;28;19913;-83
2021/01/05 09:08:55;;;;;;;;;;;;;;;-5.42;34.60;102679.41;4994222;28;19918;-84
2021/01/05 09:11:27;;;;;;;;;;;;;;;-5.44;34.26;102684.00;5025307;28;19949;-83
2021/01/05 09:13:56;;;;;;;;;;;;;;;-5.67;33.97;102684.50;4993130;28;19950;-83
2021/01/05 09:16:29;;;;;;;;;;;;;;;-5.48;33.50;102690.56;5022992;28;19918;-83
2021/01/05 09:18:55;;;;;;;;;;;;;;;-5.31;33.70;102684.13;5007671;28;20000;-84
2021/01/05 09:21:23;;;;;;;;;;;;;;;-5.29;33.36;102695.69;5025018;28;19960;-83
2021/01/05 09:23:50;;;;;;;;;;;;;;;-5.47;33.43;102693.16;4991516;28;19925;-85
2021/01/05 09:26:18;;;;;;;;;;;;;;;-5.64;34.34;102694.22;5021864;28;19914;-82
2021/01/05 09:28:47;;;;;;;;;;;;;;;-5.42;33.44;102691.03;5021448;28;19918;-82
2021/01/05 09:31:13;;;;;;;;;;;;;;;-5.54;33.77;102686.41;4989663;28;19978;-82
2021/01/05 09:33:39;;;;;;;;;;;;;;;-5.52;34.00;102692.59;4988778;28;19940;-83
2021/01/05 09:36:09;;;;;;;;;;;;;;;-5.68;34.73;102707.03;5022902;28;19914;-82
2021/01/05 09:38:35;;;;;;;;;;;;;;;-5.91;35.14;102697.66;5022165;28;19914;-83
2021/01/05 09:41:04;;;;;;;;;;;;;;;-5.95;35.25;102706.91;4990329;28;20013;-82
2021/01/05 09:43:38;;;;;;;;;;;;;;;-5.80;35.56;102705.09;4986759;28;19914;-83
2021/01/05 09:46:10;;;;;;;;;;;;;;;-5.76;35.85;102703.94;4989090;28;19973;-82
2021/01/05 09:48:36;;;;;;;;;;;;;;;-5.96;36.63;102700.63;4990706;28;19914;-82
2021/01/05 09:51:04;;;;;;;;;;;;;;;-5.98;37.28;102709.75;4990549;28;19914;-83
2021/01/05 09:53:34;;;;;;;;;;;;;;;-5.88;36.93;102715.47;4990973;28;19918;-83
2021/01/05 09:56:00;;;;;;;;;;;;;;;-5.96;37.12;102730.31;5022542;28;19953;-83
2021/01/05 09:58:28;;;;;;;;;;;;;;;-5.95;37.89;102725.78;4990652;28;19928;-82
2021/01/05 10:00:55;;;;;;;;;;;;;;;-5.99;37.91;102724.22;4991005;28;19936;-84
2021/01/05 10:03:22;;;;;;;;;;;;;;;-6.04;37.61;102724.53;4990758;28;20477;-83
2021/01/05 10:05:48;;;;;;;;;;;;;;;-5.95;37.65;102732.03;4990578;28;19910;-83
2021/01/05 10:08:14;;;;;;;;;;;;;;;-5.79;37.37;102731.09;4990786;28;19914;-83
2021/01/05 10:10:41;;;;;;;;;;;;;;;-6.02;37.99;102733.38;5021414;28;19914;-83
2021/01/05 10:13:07;;;;;;;;;;;;;;;-5.84;37.90;102730.53;4987786;28;19937;-82
2021/01/05 10:15:36;;;;;;;;;;;;;;;-5.81;37.60;102733.03;5002168;28;19922;-83
2021/01/05 10:18:06;;;;;;;;;;;;;;;-5.74;37.92;102730.81;4985713;28;19918;-84
2021/01/05 10:20:35;;;;;;;;;;;;;;;-5.84;37.55;102734.09;4987340;28;19921;-82
2021/01/05 10:23:05;;;;;;;;;;;;;;;-5.64;37.83;102722.06;4987180;28;19948;-83
2021/01/05 10:25:31;;;;;;;;;;;;;;;-5.56;37.81;102716.22;4985079;28;19978;-82
2021/01/05 10:27:58;;;;;;;;;;;;;;;-5.73;38.20;102709.16;4986747;28;19977;-83
2021/01/05 10:30:37;;;;;;;;;;;;;;;-6.01;38.99;102716.22;4986930;28;19957;-82
2021/01/05 10:33:03;;;;;;;;;;;;;;;-5.98;38.66;102718.75;4988738;28;19918;-83
2021/01/05 10:35:29;;;;;;;;;;;;;;;-6.01;39.05;102716.22;4987837;28;19965;-82
2021/01/05 10:37:55;;;;;;;;;;;;;;;-5.94;39.05;102720.28;5018008;28;19918;-83
2021/01/05 10:40:22;;;;;;;;;;;;;;;-5.92;38.93;102717.50;5001640;28;20378;-83
2021/01/05 10:42:51;;;;;;;;;;;;;;;-6.10;39.77;102722.19;4987324;28;19914;-83
2021/01/05 10:45:20;;;;;;;;;;;;;;;-5.93;39.45;102724.69;4986341;28;20007;-82
2021/01/05 10:47:52;;;;;;;;;;;;;;;-5.96;39.58;102724.03;4988941;28;19918;-84
2021/01/05 10:50:21;;;;;;;;;;;;;;;-6.08;39.71;102722.97;4986303;28;19914;-83
2021/01/05 10:52:47;;;;;;;;;;;;;;;-6.00;39.83;102728.72;4988131;28;19988;-83
2021/01/05 10:55:14;;;;;;;;;;;;;;;-6.06;39.83;102719.22;5018909;28;19914;-82
2021/01/05 10:57:43;;;;;;;;;;;;;;;-6.28;40.17;102708.84;4987577;28;19933;-83
2021/01/05 11:00:14;;;;;;;;;;;;;;;-6.18;40.38;102715.44;4987972;28;19949;-82
2021/01/05 11:02:42;;;;;;;;;;;;;;;-6.39;40.55;102722.06;4989158;28;19981;-82
2021/01/05 11:05:10;;;;;;;;;;;;;;;-6.18;40.92;102726.22;4987600;28;19941;-82
2021/01/05 11:07:36;;;;;;;;;;;;;;;-6.12;40.67;102721.44;5002098;28;19921;-83
2021/01/05 11:10:03;;;;;;;;;;;;;;;-6.33;41.08;102732.50;4987471;28;19925;-83
2021/01/05 11:12:29;;;;;;;;;;;;;;;-6.48;41.34;102724.34;4987198;28;19918;-83
2021/01/05 11:14:57;;;;;;;;;;;;;;;-6.55;41.34;102733.75;5021062;28;19914;-84
2021/01/05 11:17:24;;;;;;;;;;;;;;;-6.39;41.10;102727.47;5020119;28;19921;-83
2021/01/05 11:19:52;;;;;;;;;;;;;;;-6.46;41.25;102726.97;4989146;28;19925;-83
2021/01/05 11:22:19;;;;;;;;;;;;;;;-6.49;41.95;102740.59;4988765;28;19988;-81
2021/01/05 11:24:48;;;;;;;;;;;;;;;-6.48;42.39;102735.13;4987293;28;19981;-83
2021/01/05 11:27:16;;;;;;;;;;;;;;;-6.42;41.81;102724.97;5002382;28;19921;-83
2021/01/05 11:29:43;;;;;;;;;;;;;;;-6.43;41.67;102736.72;5020251;28;20000;-83
2021/01/05 11:32:11;;;;;;;;;;;;;;;-6.71;42.47;102744.56;4984261;28;19964;-83
2021/01/05 11:34:39;;;;;;;;;;;;;;;-6.71;42.44;102741.84;5016567;28;19937;-82
2021/01/05 11:37:08;;;;;;;;;;;;;;;-6.81;43.28;102738.81;5015759;28;19914;-83
2021/01/05 11:39:35;;;;;;;;;;;;;;;-6.83;43.40;102738.03;5018752;28;19914;-83
2021/01/05 11:42:03;;;;;;;;;;;;;;;-6.81;43.01;102738.81;5001486;28;19925;-83
2021/01/05 11:44:29;;;;;;;;;;;;;;;-7.38;43.18;102664.72;5016290;28;19924;-83
2021/01/05 11:46:56;;;;;;;;;;;;;;;-7.14;44.26;102742.41;5000747;28;19922;-83
2021/01/05 11:49:23;;;;;;;;;;;;;;;-7.07;44.61;102735.72;4984924;28;19914;-82
2021/01/05 11:51:53;;;;;;;;;;;;;;;-6.99;44.17;102745.19;4986294;28;19914;-82
2021/01/05 11:54:20;;;;;;;;;;;;;;;-6.94;43.77;102744.03;5017289;28;19914;-82
2021/01/05 11:56:46;;;;;;;;;;;;;;;-7.10;43.42;102743.09;4983965;28;19918;-82
2021/01/05 11:59:13;;;;;;;;;;;;;;;-7.03;44.08;102742.69;5016152;28;19914;-83
2021/01/05 12:01:39;;;;;;;;;;;;;;;-6.94;43.37;102743.13;4984329;28;19944;-82
2021/01/05 12:04:06;;;;;;;;;;;;;;;-7.04;43.04;102740.06;5016093;28;19918;-82
2021/01/05 12:06:33;;;;;;;;;;;;;;;-7.09;43.69;102748.41;4984563;28;20367;-82
2021/01/05 12:08:59;;;;;;;;;;;;;;;-7.26;42.72;102743.09;4986073;28;20445;-82
2021/01/05 12:11:27;;;;;;;;;;;;;;;-7.33;43.71;102729.06;5018668;28;19918;-82
2021/01/05 12:13:54;;;;;;;;;;;;;;;-7.30;43.13;102743.25;5019330;28;20343;-83
2021/01/05 12:16:27;;;;;;;;;;;;;;;-7.36;43.44;102730.13;4986203;28;19918;-82
2021/01/05 12:18:55;;;;;;;;;;;;;;;-7.39;44.07;102732.13;5019516;28;19914;-82
2021/01/05 12:21:24;;;;;;;;;;;;;;;-7.50;44.58;102730.84;5018897;28;19993;-82
2021/01/05 12:23:53;;;;;;;;;;;;;;;-7.55;44.51;102738.31;4987853;28;19925;-83
2021/01/05 12:26:23;;;;;;;;;;;;;;;-7.39;44.44;102735.66;4987725;28;19942;-82
2021/01/05 12:28:49;;;;;;;;;;;;;;;-7.39;43.70;102745.59;4985957;28;20016;-83
2021/01/05 12:31:16;;;;;;;;;;;;;;;-7.60;44.21;102740.38;4987016;28;19918;-82
2021/01/05 12:33:42;;;;;;;;;;;;;;;-7.58;43.97;102733.97;4987381;28;19953;-81
2021/01/05 12:36:08;;;;;;;;;;;;;;;-7.51;44.38;102741.72;4986138;28;19914;-82
2021/01/05 12:38:35;;;;;;;;;;;;;;;-7.65;44.20;102737.06;4985996;28;20256;-83
2021/01/05 12:41:02;;;;;;;;;;;;;;;-7.65;44.29;102740.63;4984884;28;19917;-82
2021/01/05 12:43:28;;;;;;;;;;;;;;;-7.37;44.20;102731.06;5018480;28;19937;-82
2021/01/05 12:45:54;;;;;;;;;;;;;;;-7.65;44.36;102721.81;5001588;28;19953;-83
2021/01/05 12:48:21;;;;;;;;;;;;;;;-7.57;43.67;102711.50;4985430;28;19925;-82
2021/01/05 12:50:47;;;;;;;;;;;;;;;-7.72;44.05;102715.00;5020053;28;20416;-83
2021/01/05 12:53:14;;;;;;;;;;;;;;;-7.85;44.33;102720.16;5018765;28;19957;-82